createdAt,value
2022-11-01T00:01:50.732Z,11.13
2022-11-01T00:04:18.256Z,11.10
2022-11-01T00:06:45.423Z,11.11
2022-11-01T00:09:12.545Z,11.07
2022-11-01T00:11:39.750Z,11.08
2022-11-01T00:14:07.154Z,10.96
2022-11-01T00:16:34.392Z,10.87
2022-11-01T00:19:01.617Z,10.88
2022-11-01T00:21:28.668Z,10.94
2022-11-01T00:23:55.781Z,10.98
2022-11-01T00:26:23.776Z,10.92
2022-11-01T00:28:51.420Z,10.91
2022-11-01T00:31:19.383Z,10.92
2022-11-01T00:33:46.983Z,10.94
2022-11-01T00:36:14.052Z,10.91
2022-11-01T00:38:41.159Z,10.86
2022-11-01T00:41:08.252Z,10.83
2022-11-01T00:43:35.964Z,10.76
2022-11-01T00:46:03.808Z,10.74
2022-11-01T00:48:31.369Z,10.77
2022-11-01T00:50:58.502Z,10.76
2022-11-01T00:53:25.604Z,10.77
2022-11-01T00:55:52.642Z,10.71
2022-11-01T00:58:19.698Z,10.68
2022-11-01T01:00:47.442Z,10.65
2022-11-01T01:03:14.538Z,10.69
2022-11-01T01:05:41.758Z,10.76
2022-11-01T01:08:08.806Z,10.75
2022-11-01T01:10:35.960Z,10.72
2022-11-01T01:13:03.486Z,10.71
2022-11-01T01:15:30.869Z,10.73
2022-11-01T01:17:58.131Z,10.75
2022-11-01T01:20:25.175Z,10.74
2022-11-01T01:22:52.251Z,10.76
2022-11-01T01:25:20.906Z,10.74
2022-11-01T01:27:48.070Z,10.72
2022-11-01T01:30:15.609Z,10.75
2022-11-01T01:32:42.745Z,10.77
2022-11-01T01:35:10.157Z,10.78
2022-11-01T01:37:37.287Z,10.79
2022-11-01T01:40:05.602Z,10.81
2022-11-01T01:42:32.596Z,10.78
2022-11-01T01:44:59.618Z,10.77
2022-11-01T01:47:37.204Z,10.73
2022-11-01T01:50:09.334Z,10.70
2022-11-01T01:52:40.059Z,10.72
2022-11-01T01:55:08.699Z,10.74
2022-11-01T01:57:36.838Z,10.73
2022-11-01T02:00:05.337Z,10.75
2022-11-01T02:02:38.506Z,10.72
2022-11-01T02:05:12.207Z,10.65
2022-11-01T02:07:39.228Z,10.60
2022-11-01T02:10:06.646Z,10.59
2022-11-01T02:12:36.198Z,10.53
2022-11-01T02:15:04.683Z,10.46
2022-11-01T02:17:41.060Z,10.41
2022-11-01T02:20:10.931Z,10.35
2022-11-01T02:22:37.967Z,10.33
2022-11-01T02:25:10.949Z,10.36
2022-11-01T02:27:41.248Z,10.40
2022-11-01T02:30:16.675Z,10.27
2022-11-01T02:33:19.268Z,10.24
2022-11-01T02:35:46.420Z,10.16
2022-11-01T02:38:32.069Z,10.14
2022-11-01T02:41:03.553Z,10.11
2022-11-01T02:43:36.740Z,10.10
2022-11-01T02:46:25.698Z,10.10
2022-11-01T02:48:53.421Z,10.06
2022-11-01T02:51:22.724Z,10.06
2022-11-01T02:53:49.751Z,10.06
2022-11-01T02:56:17.711Z,10.09
2022-11-01T02:58:45.955Z,10.07
2022-11-01T03:01:17.716Z,10.11
2022-11-01T03:03:48.723Z,10.07
2022-11-01T03:06:23.008Z,10.02
2022-11-01T03:08:54.512Z,9.95
2022-11-01T03:11:24.292Z,9.90
2022-11-01T03:14:12.130Z,9.90
2022-11-01T03:16:54.469Z,9.87
2022-11-01T03:19:36.556Z,9.82
2022-11-01T03:22:09.486Z,9.80
2022-11-01T03:24:42.293Z,9.80
2022-11-01T03:27:32.508Z,9.82
2022-11-01T03:30:06.987Z,9.78
2022-11-01T03:32:45.382Z,9.71
2022-11-01T03:35:16.149Z,9.67
2022-11-01T03:37:44.432Z,9.64
2022-11-01T03:40:13.371Z,9.62
2022-11-01T03:42:41.088Z,9.58
2022-11-01T03:45:11.157Z,9.54
2022-11-01T03:47:38.328Z,9.53
2022-11-01T03:50:31.645Z,9.61
2022-11-01T03:52:58.694Z,9.67
2022-11-01T03:55:26.153Z,9.68
2022-11-01T03:57:54.578Z,9.70
2022-11-01T04:00:25.947Z,9.70
2022-11-01T04:02:53.922Z,9.71
2022-11-01T04:05:22.011Z,9.72
2022-11-01T04:07:49.568Z,9.58
2022-11-01T04:10:17.078Z,9.36
2022-11-01T04:12:45.085Z,9.26
2022-11-01T04:15:30.950Z,9.20
2022-11-01T04:18:23.516Z,9.17
2022-11-01T04:20:51.704Z,9.13
2022-11-01T04:23:18.781Z,9.03
2022-11-01T04:25:49.026Z,8.96
2022-11-01T04:28:16.039Z,8.95
2022-11-01T04:30:43.831Z,8.94
2022-11-01T04:33:10.866Z,9.01
2022-11-01T04:35:38.178Z,8.95
2022-11-01T04:38:05.657Z,8.82
2022-11-01T04:40:34.345Z,8.74
2022-11-01T04:43:01.700Z,8.69
2022-11-01T04:45:28.797Z,8.69
2022-11-01T04:48:06.528Z,8.64
2022-11-01T04:50:34.581Z,8.59
2022-11-01T04:53:02.601Z,8.64
2022-11-01T04:55:29.990Z,8.68
2022-11-01T04:57:57.345Z,8.72
2022-11-01T05:00:24.826Z,8.74
2022-11-01T05:02:52.476Z,8.73
2022-11-01T05:05:19.496Z,8.68
2022-11-01T05:07:46.549Z,8.65
2022-11-01T05:10:13.560Z,8.65
2022-11-01T05:12:40.761Z,8.69
2022-11-01T05:15:08.403Z,8.75
2022-11-01T05:17:35.408Z,8.80
2022-11-01T05:20:02.451Z,8.76
2022-11-01T05:22:29.510Z,8.71
2022-11-01T05:24:56.633Z,8.71
2022-11-01T05:27:23.702Z,8.69
2022-11-01T05:29:50.760Z,8.63
2022-11-01T05:32:17.895Z,8.65
2022-11-01T05:34:46.725Z,8.66
2022-11-01T05:37:13.810Z,8.72
2022-11-01T05:39:40.828Z,8.75
2022-11-01T05:42:07.881Z,8.77
2022-11-01T05:44:34.936Z,8.80
2022-11-01T05:47:02.851Z,8.75
2022-11-01T05:49:30.034Z,8.76
2022-11-01T05:51:57.188Z,8.76
2022-11-01T05:54:24.349Z,8.73
2022-11-01T05:56:51.374Z,8.71
2022-11-01T05:59:18.432Z,8.76
2022-11-01T06:01:45.576Z,8.82
2022-11-01T06:04:12.743Z,8.81
2022-11-01T06:06:39.835Z,8.82
2022-11-01T06:09:06.843Z,8.86
2022-11-01T06:11:37.785Z,8.90
2022-11-01T06:14:10.396Z,8.95
2022-11-01T06:16:37.432Z,8.97
2022-11-01T06:19:04.460Z,8.95
2022-11-01T06:21:31.516Z,8.87
2022-11-01T06:23:58.586Z,8.88
2022-11-01T06:26:25.621Z,8.83
2022-11-01T06:28:52.658Z,8.86
2022-11-01T06:31:20.055Z,8.88
2022-11-01T06:33:48.730Z,8.90
2022-11-01T06:36:15.922Z,8.91
2022-11-01T06:38:42.957Z,8.90
2022-11-01T06:41:10.073Z,8.92
2022-11-01T06:43:37.163Z,8.95
2022-11-01T06:46:04.359Z,9.01
2022-11-01T06:48:31.464Z,9.06
2022-11-01T06:50:58.612Z,9.08
2022-11-01T06:53:25.796Z,9.10
2022-11-01T06:55:52.829Z,9.11
2022-11-01T06:58:19.952Z,9.12
2022-11-01T07:00:47.078Z,9.16
2022-11-01T07:03:14.615Z,9.22
2022-11-01T07:05:41.797Z,9.22
2022-11-01T07:08:13.031Z,9.23
2022-11-01T07:10:41.338Z,9.24
2022-11-01T07:13:10.066Z,9.30
2022-11-01T07:15:37.236Z,9.34
2022-11-01T07:18:05.959Z,9.37
2022-11-01T07:20:41.426Z,9.40
2022-11-01T07:23:15.604Z,9.44
2022-11-01T07:25:43.131Z,9.49
2022-11-01T07:28:10.740Z,9.51
2022-11-01T07:30:37.819Z,9.55
2022-11-01T07:33:05.367Z,9.56
2022-11-01T07:35:33.871Z,9.61
2022-11-01T07:38:02.827Z,9.61
2022-11-01T07:40:32.308Z,9.61
2022-11-01T07:43:00.202Z,9.63
2022-11-01T07:45:28.585Z,9.66
2022-11-01T07:48:03.112Z,9.71
2022-11-01T07:50:31.448Z,9.78
2022-11-01T07:52:59.196Z,9.86
2022-11-01T07:55:26.288Z,9.97
2022-11-01T07:57:53.363Z,10.04
2022-11-01T08:00:20.962Z,10.13
2022-11-01T08:02:48.108Z,10.18
2022-11-01T08:05:15.286Z,10.22
2022-11-01T08:07:42.338Z,10.28
2022-11-01T08:10:10.901Z,10.36
2022-11-01T08:12:38.279Z,10.42
2022-11-01T08:15:05.554Z,10.47
2022-11-01T08:17:35.800Z,10.52
2022-11-01T08:20:02.839Z,10.60
2022-11-01T08:22:30.020Z,10.66
2022-11-01T08:24:57.040Z,10.70
2022-11-01T08:27:24.133Z,10.73
2022-11-01T08:29:51.279Z,10.78
2022-11-01T08:32:21.633Z,10.83
2022-11-01T08:34:48.961Z,10.92
2022-11-01T08:37:17.699Z,10.98
2022-11-01T08:39:45.143Z,11.05
2022-11-01T08:42:12.213Z,11.12
2022-11-01T08:44:39.289Z,11.23
2022-11-01T08:47:06.346Z,11.32
2022-11-01T08:49:33.439Z,11.40
2022-11-01T08:52:00.499Z,11.49
2022-11-01T08:54:27.587Z,11.53
2022-11-01T08:56:54.689Z,11.59
2022-11-01T08:59:21.746Z,11.62
2022-11-01T09:01:51.144Z,11.68
2022-11-01T09:04:18.279Z,11.73
2022-11-01T09:06:45.367Z,11.77
2022-11-01T09:09:12.713Z,11.82
2022-11-01T09:11:39.983Z,11.95
2022-11-01T09:14:07.085Z,12.14
2022-11-01T09:16:34.179Z,12.30
2022-11-01T09:19:02.620Z,12.47
2022-11-01T09:21:31.782Z,12.55
2022-11-01T09:23:59.803Z,12.66
2022-11-01T09:26:29.811Z,12.77
2022-11-01T09:28:58.668Z,12.92
2022-11-01T09:31:26.029Z,13.09
2022-11-01T09:33:57.042Z,13.25
2022-11-01T09:36:24.573Z,13.52
2022-11-01T09:38:51.766Z,13.69
2022-11-01T09:41:27.687Z,13.76
2022-11-01T09:43:56.919Z,13.81
2022-11-01T09:46:26.357Z,13.83
2022-11-01T09:48:55.333Z,13.79
2022-11-01T09:51:24.089Z,13.77
2022-11-01T09:53:53.949Z,13.72
2022-11-01T09:56:30.309Z,13.75
2022-11-01T09:59:07.468Z,13.79
2022-11-01T10:01:39.480Z,13.83
2022-11-01T10:04:06.625Z,13.92
2022-11-01T10:06:36.551Z,14.03
2022-11-01T10:09:16.900Z,14.23
2022-11-01T10:12:01.208Z,14.37
2022-11-01T10:14:31.025Z,14.44
2022-11-01T10:17:10.332Z,14.45
2022-11-01T10:19:37.949Z,14.47
2022-11-01T10:22:07.589Z,14.49
2022-11-01T10:24:40.434Z,14.48
2022-11-01T10:27:26.583Z,14.45
2022-11-01T10:29:53.597Z,14.41
2022-11-01T10:32:27.982Z,14.40
2022-11-01T10:34:59.021Z,14.37
2022-11-01T10:37:33.575Z,14.32
2022-11-01T10:40:09.258Z,14.34
2022-11-01T10:42:36.961Z,14.37
2022-11-01T10:45:07.488Z,14.38
2022-11-01T10:47:34.623Z,14.37
2022-11-01T10:50:08.131Z,14.37
2022-11-01T10:52:50.605Z,14.38
2022-11-01T10:55:20.127Z,14.34
2022-11-01T10:58:00.231Z,14.39
2022-11-01T11:00:27.995Z,14.47
2022-11-01T11:02:56.946Z,14.46
2022-11-01T11:05:25.387Z,14.45
2022-11-01T11:07:52.479Z,14.48
2022-11-01T11:10:24.883Z,14.52
2022-11-01T11:12:54.173Z,14.54
2022-11-01T11:15:23.477Z,14.54
2022-11-01T11:17:54.250Z,14.58
2022-11-01T11:20:24.097Z,14.62
2022-11-01T11:22:51.560Z,14.66
2022-11-01T11:25:20.041Z,14.70
2022-11-01T11:27:48.607Z,14.73
2022-11-01T11:30:32.675Z,14.73
2022-11-01T11:33:02.034Z,14.83
2022-11-01T11:35:32.568Z,14.89
2022-11-01T11:38:04.959Z,14.86
2022-11-01T11:40:38.464Z,14.90
2022-11-01T11:43:25.983Z,14.92
2022-11-01T11:46:11.752Z,14.96
2022-11-01T11:48:52.328Z,14.97
2022-11-01T11:51:23.110Z,14.99
2022-11-01T11:54:07.168Z,14.99
2022-11-01T11:56:34.214Z,15.05
2022-11-01T11:59:21.970Z,15.10
2022-11-01T12:01:49.257Z,15.13
2022-11-01T12:04:18.937Z,15.09
2022-11-01T12:06:46.477Z,15.09
2022-11-01T12:09:32.179Z,15.08
2022-11-01T12:12:05.450Z,15.15
2022-11-01T12:14:34.356Z,15.18
2022-11-01T12:17:05.887Z,15.19
2022-11-01T12:19:35.436Z,15.25
2022-11-01T12:22:03.035Z,15.25
2022-11-01T12:24:50.335Z,15.26
2022-11-01T12:27:20.094Z,15.32
2022-11-01T12:29:53.432Z,15.37
2022-11-01T12:32:25.112Z,15.39
2022-11-01T12:34:53.777Z,15.41
2022-11-01T12:37:26.344Z,15.44
2022-11-01T12:39:53.374Z,15.45
2022-11-01T12:42:32.617Z,15.38
2022-11-01T12:45:06.196Z,15.38
2022-11-01T12:47:42.116Z,15.37
2022-11-01T12:50:18.266Z,15.29
2022-11-01T12:52:54.863Z,15.27
2022-11-01T12:55:21.914Z,15.07
2022-11-01T12:57:49.090Z,15.10
2022-11-01T13:00:17.521Z,15.09
2022-11-01T13:03:04.499Z,15.11
2022-11-01T13:05:42.489Z,15.01
2022-11-01T13:08:09.568Z,14.98
2022-11-01T13:10:39.177Z,14.98
2022-11-01T13:13:12.269Z,14.90
2022-11-01T13:15:51.304Z,14.87
2022-11-01T13:18:43.792Z,14.79
2022-11-01T13:21:13.599Z,14.76
2022-11-01T13:23:49.218Z,14.77
2022-11-01T13:26:21.097Z,14.83
2022-11-01T13:29:00.432Z,14.85
2022-11-01T13:31:27.633Z,14.85
2022-11-01T13:34:01.759Z,14.82
2022-11-01T13:36:34.881Z,14.81
2022-11-01T13:39:20.378Z,14.83
2022-11-01T13:41:53.378Z,14.82
2022-11-01T13:44:27.419Z,14.81
2022-11-01T13:46:54.468Z,14.79
2022-11-01T13:49:44.856Z,14.80
2022-11-01T13:52:19.678Z,14.76
2022-11-01T13:55:05.151Z,14.79
2022-11-01T13:57:32.595Z,14.75
2022-11-01T14:00:01.203Z,14.74
2022-11-01T14:02:46.116Z,14.74
2022-11-01T14:05:13.551Z,14.73
2022-11-01T14:07:43.407Z,14.72
2022-11-01T14:10:22.993Z,14.74
2022-11-01T14:12:56.412Z,14.76
2022-11-01T14:15:24.934Z,14.70
2022-11-01T14:18:08.796Z,14.71
2022-11-01T14:20:38.603Z,14.72
2022-11-01T14:23:24.512Z,14.72
2022-11-01T14:26:11.483Z,14.71
2022-11-01T14:28:48.913Z,14.70
2022-11-01T14:31:17.505Z,14.70
2022-11-01T14:33:45.404Z,14.71
2022-11-01T14:36:14.228Z,14.70
2022-11-01T14:39:02.560Z,14.70
2022-11-01T14:41:32.645Z,14.69
2022-11-01T14:44:03.174Z,14.69
2022-11-01T14:46:31.294Z,14.67
2022-11-01T14:49:04.574Z,14.65
2022-11-01T14:51:35.437Z,14.63
2022-11-01T14:54:05.326Z,14.61
2022-11-01T14:56:39.804Z,14.58
2022-11-01T14:59:34.515Z,14.54
2022-11-01T15:02:05.066Z,14.52
2022-11-01T15:04:43.812Z,14.50
2022-11-01T15:07:19.149Z,14.47
2022-11-01T15:09:59.344Z,14.48
2022-11-01T15:12:47.836Z,14.46
2022-11-01T15:15:17.376Z,14.45
2022-11-01T15:17:50.737Z,14.43
2022-11-01T15:20:19.352Z,14.39
2022-11-01T15:22:46.750Z,14.34
2022-11-01T15:25:21.343Z,14.30
2022-11-01T15:27:49.702Z,14.27
2022-11-01T15:30:19.827Z,14.23
2022-11-01T15:32:49.883Z,14.19
2022-11-01T15:35:25.434Z,14.13
2022-11-01T15:37:53.999Z,14.14
2022-11-01T15:40:29.568Z,14.11
2022-11-01T15:42:58.138Z,14.08
2022-11-01T15:45:32.387Z,14.06
2022-11-01T15:48:06.938Z,14.03
2022-11-01T15:50:35.841Z,14.04
2022-11-01T15:53:07.342Z,14.04
2022-11-01T15:55:36.127Z,14.02
2022-11-01T15:58:06.991Z,14.00
2022-11-01T16:00:34.335Z,14.00
2022-11-01T16:03:15.022Z,13.98
2022-11-01T16:05:44.842Z,13.93
2022-11-01T16:08:23.518Z,13.88
2022-11-01T16:10:50.550Z,13.86
2022-11-01T16:13:18.910Z,13.82
2022-11-01T16:16:05.136Z,13.80
2022-11-01T16:18:36.672Z,13.78
2022-11-01T16:21:20.898Z,13.77
2022-11-01T16:24:09.258Z,13.76
2022-11-01T16:26:53.444Z,13.76
2022-11-01T16:29:37.736Z,13.73
2022-11-01T16:32:09.733Z,13.72
2022-11-01T16:34:37.364Z,13.69
2022-11-01T16:37:14.334Z,13.66
2022-11-01T16:39:42.028Z,13.63
2022-11-01T16:42:09.540Z,13.62
2022-11-01T16:44:36.677Z,13.59
2022-11-01T16:47:03.786Z,13.54
2022-11-01T16:49:31.210Z,13.55
2022-11-01T16:51:58.364Z,13.50
2022-11-01T16:54:25.789Z,13.48
2022-11-01T16:56:54.453Z,13.45
2022-11-01T16:59:33.642Z,13.44
2022-11-01T17:02:02.416Z,13.42
2022-11-01T17:04:29.702Z,13.42
2022-11-01T17:06:58.270Z,13.40
2022-11-01T17:09:28.686Z,13.36
2022-11-01T17:11:55.843Z,13.34
2022-11-01T17:14:22.922Z,13.31
2022-11-01T17:16:51.031Z,13.28
2022-11-01T17:19:26.187Z,13.27
2022-11-01T17:21:54.050Z,13.28
2022-11-01T17:24:22.769Z,13.27
2022-11-01T17:26:51.128Z,13.27
2022-11-01T17:29:18.312Z,13.24
2022-11-01T17:31:45.432Z,13.25
2022-11-01T17:34:12.504Z,13.24
2022-11-01T17:36:42.834Z,13.25
2022-11-01T17:39:10.338Z,13.23
2022-11-01T17:41:37.787Z,13.22
2022-11-01T17:44:05.286Z,13.20
2022-11-01T17:46:32.721Z,13.19
2022-11-01T17:48:59.764Z,13.18
2022-11-01T17:51:26.797Z,13.14
2022-11-01T17:53:54.917Z,13.11
2022-11-01T17:56:22.920Z,13.11
2022-11-01T17:58:52.673Z,13.10
2022-11-01T18:01:20.757Z,13.07
2022-11-01T18:03:48.090Z,13.07
2022-11-01T18:06:15.475Z,13.02
2022-11-01T18:08:46.804Z,13.02
2022-11-01T18:11:22.910Z,13.01
2022-11-01T18:14:05.989Z,12.99
2022-11-01T18:16:33.022Z,12.96
2022-11-01T18:19:18.663Z,12.96
2022-11-01T18:21:52.335Z,12.93
2022-11-01T18:24:24.353Z,12.87
2022-11-01T18:26:51.555Z,12.85
2022-11-01T18:29:23.996Z,12.84
2022-11-01T18:32:12.208Z,12.79
2022-11-01T18:34:40.226Z,12.79
2022-11-01T18:37:13.114Z,12.70
2022-11-01T18:39:51.333Z,12.71
2022-11-01T18:42:18.394Z,12.69
2022-11-01T18:44:45.516Z,12.71
2022-11-01T18:47:15.907Z,12.72
2022-11-01T18:49:43.159Z,12.72
2022-11-01T18:52:11.546Z,12.72
2022-11-01T18:54:41.482Z,12.69
2022-11-01T18:57:14.357Z,12.67
2022-11-01T18:59:41.694Z,12.65
2022-11-01T19:02:12.127Z,12.62
2022-11-01T19:04:42.221Z,12.57
2022-11-01T19:07:10.236Z,12.55
2022-11-01T19:09:38.085Z,12.49
2022-11-01T19:12:15.866Z,12.40
2022-11-01T19:14:43.522Z,12.35
2022-11-01T19:17:23.588Z,12.35
2022-11-01T19:19:54.326Z,12.34
2022-11-01T19:22:27.804Z,12.34
2022-11-01T19:24:54.840Z,12.33
2022-11-01T19:27:22.762Z,12.22
2022-11-01T19:29:54.050Z,12.10
2022-11-01T19:32:25.319Z,12.02
2022-11-01T19:34:52.811Z,12.00
2022-11-01T19:37:33.121Z,12.00
2022-11-01T19:40:04.973Z,12.00
2022-11-01T19:42:32.083Z,11.96
2022-11-01T19:45:02.876Z,11.95
2022-11-01T19:47:35.205Z,11.94
2022-11-01T19:50:02.368Z,11.93
2022-11-01T19:52:36.481Z,11.87
2022-11-01T19:55:24.049Z,11.79
2022-11-01T19:57:51.265Z,11.76
2022-11-01T20:00:19.477Z,11.74
2022-11-01T20:02:48.552Z,11.70
2022-11-01T20:05:30.870Z,11.69
2022-11-01T20:08:14.207Z,11.67
2022-11-01T20:10:41.256Z,11.60
2022-11-01T20:13:09.330Z,11.50
2022-11-01T20:15:36.430Z,11.45
2022-11-01T20:18:04.022Z,11.40
2022-11-01T20:20:32.537Z,11.36
2022-11-01T20:23:20.244Z,11.32
2022-11-01T20:25:47.684Z,11.15
2022-11-01T20:28:15.062Z,11.09
2022-11-01T20:30:42.089Z,11.06
2022-11-01T20:33:09.186Z,11.01
2022-11-01T20:35:36.246Z,10.97
2022-11-01T20:38:03.308Z,10.96
2022-11-01T20:40:30.387Z,10.95
2022-11-01T20:42:57.434Z,10.91
2022-11-01T20:45:24.467Z,10.90
2022-11-01T20:47:51.575Z,10.88
2022-11-01T20:50:18.919Z,10.89
2022-11-01T20:52:46.116Z,10.84
2022-11-01T20:55:13.210Z,10.72
2022-11-01T20:57:40.297Z,10.70
2022-11-01T21:00:09.951Z,10.62
2022-11-01T21:02:37.020Z,10.56
2022-11-01T21:05:15.198Z,10.50
2022-11-01T21:07:46.867Z,10.41
2022-11-01T21:10:35.108Z,10.36
2022-11-01T21:13:04.009Z,10.31
2022-11-01T21:15:31.301Z,10.36
2022-11-01T21:18:07.490Z,10.41
2022-11-01T21:20:35.933Z,10.40
2022-11-01T21:23:32.058Z,10.40
2022-11-01T21:26:06.567Z,10.43
2022-11-01T21:28:40.662Z,10.46
2022-11-01T21:31:10.709Z,10.47
2022-11-01T21:33:39.068Z,10.49
2022-11-01T21:36:21.025Z,10.51
2022-11-01T21:38:49.568Z,10.48
2022-11-01T21:41:16.923Z,10.44
2022-11-01T21:43:43.980Z,10.46
2022-11-01T21:46:16.273Z,10.48
2022-11-01T21:48:43.297Z,10.49
2022-11-01T21:51:10.343Z,10.50
2022-11-01T21:53:37.490Z,10.46
2022-11-01T21:56:04.720Z,10.43
2022-11-01T21:58:31.826Z,10.44
2022-11-01T22:00:59.359Z,10.40
2022-11-01T22:03:26.515Z,10.38
2022-11-01T22:05:53.583Z,10.34
2022-11-01T22:08:20.662Z,10.30
2022-11-01T22:10:47.730Z,10.29
2022-11-01T22:13:15.330Z,10.28
2022-11-01T22:15:42.431Z,10.27
2022-11-01T22:18:09.459Z,10.22
2022-11-01T22:20:36.542Z,10.20
2022-11-01T22:23:03.880Z,10.15
2022-11-01T22:25:31.133Z,10.08
2022-11-01T22:27:58.190Z,10.00
2022-11-01T22:30:25.289Z,9.99
2022-11-01T22:32:52.419Z,9.99
2022-11-01T22:35:19.449Z,9.97
2022-11-01T22:37:46.494Z,9.96
2022-11-01T22:40:14.029Z,9.95
2022-11-01T22:42:41.376Z,9.95
2022-11-01T22:45:15.272Z,9.98
2022-11-01T22:47:42.665Z,10.00
2022-11-01T22:50:12.340Z,9.98
2022-11-01T22:52:41.887Z,9.92
2022-11-01T22:55:11.757Z,9.90
2022-11-01T22:57:54.696Z,9.81
2022-11-01T23:00:22.073Z,9.68
2022-11-01T23:02:49.251Z,9.64
2022-11-01T23:05:22.004Z,9.53
2022-11-01T23:07:50.404Z,9.55
2022-11-01T23:10:23.669Z,9.57
2022-11-01T23:13:31.414Z,9.59
2022-11-01T23:15:59.580Z,9.60
2022-11-01T23:18:28.735Z,9.57
2022-11-01T23:21:08.995Z,9.58
2022-11-01T23:23:46.222Z,9.54
2022-11-01T23:26:14.454Z,9.51
2022-11-01T23:28:43.185Z,9.50
2022-11-01T23:31:10.837Z,9.50
2022-11-01T23:33:42.103Z,9.49
2022-11-01T23:36:13.203Z,9.50
2022-11-01T23:38:48.547Z,9.48
2022-11-01T23:41:24.940Z,9.49
2022-11-01T23:43:54.364Z,9.49
2022-11-01T23:46:21.500Z,9.46
2022-11-01T23:48:49.132Z,9.52
2022-11-01T23:51:19.596Z,9.56
2022-11-01T23:53:48.595Z,9.56
2022-11-01T23:56:18.124Z,9.54
2022-11-01T23:58:45.475Z,9.49
